sensor_id;sensor_type;location;lat;lon;timestamp;pressure;altitude;pressure_sealevel;temperature;humidity
21742;BME280;11033;47.490;11.116;2023-04-24T00:00:50;92345.63;;;9.90;94.21
21742;BME280;11033;47.490;11.116;2023-04-24T00:03:16;92350.09;;;9.83;93.41
21742;BME280;11033;47.490;11.116;2023-04-24T00:05:41;92341.34;;;10.02;93.50
21742;BME280;11033;47.490;11.116;2023-04-24T00:08:07;92340.38;;;9.90;92.70
21742;BME280;11033;47.490;11.116;2023-04-24T00:10:33;92340.81;;;9.80;94.06
21742;BME280;11033;47.490;11.116;2023-04-24T00:12:58;92337.75;;;9.83;92.96
21742;BME280;11033;47.490;11.116;2023-04-24T00:15:23;92336.53;;;9.73;93.44
21742;BME280;11033;47.490;11.116;2023-04-24T00:17:49;92336.56;;;9.79;93.42
21742;BME280;11033;47.490;11.116;2023-04-24T00:20:14;92346.47;;;9.84;92.35
21742;BME280;11033;47.490;11.116;2023-04-24T00:22:40;92342.00;;;9.84;91.03
21742;BME280;11033;47.490;11.116;2023-04-24T00:25:05;92339.78;;;9.75;90.76
21742;BME280;11033;47.490;11.116;2023-04-24T00:27:31;92333.91;;;9.86;89.61
21742;BME280;11033;47.490;11.116;2023-04-24T00:29:56;92333.13;;;9.79;90.73
21742;BME280;11033;47.490;11.116;2023-04-24T00:32:21;92324.81;;;9.75;93.60
21742;BME280;11033;47.490;11.116;2023-04-24T00:34:47;92325.41;;;9.84;92.71
21742;BME280;11033;47.490;11.116;2023-04-24T00:37:12;92327.63;;;9.74;93.57
21742;BME280;11033;47.490;11.116;2023-04-24T00:39:37;92329.28;;;9.62;94.24
21742;BME280;11033;47.490;11.116;2023-04-24T00:42:03;92331.50;;;9.51;95.59
21742;BME280;11033;47.490;11.116;2023-04-24T00:44:30;92324.22;;;9.53;94.66
21742;BME280;11033;47.490;11.116;2023-04-24T00:46:56;92329.66;;;9.65;93.99
21742;BME280;11033;47.490;11.116;2023-04-24T00:49:22;92317.34;;;9.79;92.41
21742;BME280;11033;47.490;11.116;2023-04-24T00:51:47;92325.44;;;9.51;95.22
21742;BME280;11033;47.490;11.116;2023-04-24T00:54:14;92322.63;;;9.46;96.11
21742;BME280;11033;47.490;11.116;2023-04-24T00:56:41;92330.47;;;9.66;94.40
21742;BME280;11033;47.490;11.116;2023-04-24T00:59:07;92315.31;;;9.54;95.10
21742;BME280;11033;47.490;11.116;2023-04-24T01:01:33;92322.19;;;9.69;94.02
21742;BME280;11033;47.490;11.116;2023-04-24T01:03:58;92317.72;;;9.69;93.85
21742;BME280;11033;47.490;11.116;2023-04-24T01:06:27;92316.53;;;9.52;94.13
21742;BME280;11033;47.490;11.116;2023-04-24T01:08:53;92313.31;;;9.57;94.71
21742;BME280;11033;47.490;11.116;2023-04-24T01:11:20;92316.16;;;9.42;95.00
21742;BME280;11033;47.490;11.116;2023-04-24T01:13:47;92323.00;;;9.56;93.75
21742;BME280;11033;47.490;11.116;2023-04-24T01:16:16;92341.22;;;9.44;91.63
21742;BME280;11033;47.490;11.116;2023-04-24T01:18:43;92331.50;;;9.45;90.72
21742;BME280;11033;47.490;11.116;2023-04-24T01:21:08;92330.31;;;9.34;90.89
21742;BME280;11033;47.490;11.116;2023-04-24T01:23:34;92334.75;;;9.34;91.65
21742;BME280;11033;47.490;11.116;2023-04-24T01:26:00;92326.25;;;9.51;91.37
21742;BME280;11033;47.490;11.116;2023-04-24T01:28:25;92330.31;;;9.41;92.34
21742;BME280;11033;47.490;11.116;2023-04-24T01:30:51;92328.69;;;9.53;93.49
21742;BME280;11033;47.490;11.116;2023-04-24T01:33:17;92327.47;;;9.49;93.22
21742;BME280;11033;47.490;11.116;2023-04-24T01:35:43;92333.53;;;9.36;94.80
21742;BME280;11033;47.490;11.116;2023-04-24T01:38:08;92332.72;;;9.42;94.21
21742;BME280;11033;47.490;11.116;2023-04-24T01:40:34;92339.59;;;9.43;92.46
21742;BME280;11033;47.490;11.116;2023-04-24T01:43:00;92342.84;;;9.26;92.95
21742;BME280;11033;47.490;11.116;2023-04-24T01:45:25;92336.38;;;9.21;92.26
21742;BME280;11033;47.490;11.116;2023-04-24T01:47:50;92331.28;;;9.07;94.11
21742;BME280;11033;47.490;11.116;2023-04-24T01:50:17;92323.03;;;9.16;94.92
21742;BME280;11033;47.490;11.116;2023-04-24T01:52:43;92320.78;;;9.07;96.04
21742;BME280;11033;47.490;11.116;2023-04-24T01:55:09;92326.47;;;9.10;95.62
21742;BME280;11033;47.490;11.116;2023-04-24T01:57:35;92323.00;;;8.97;97.34
21742;BME280;11033;47.490;11.116;2023-04-24T02:00:00;92327.03;;;9.06;96.20
21742;BME280;11033;47.490;11.116;2023-04-24T02:02:25;92310.50;;;9.12;96.00
21742;BME280;11033;47.490;11.116;2023-04-24T02:04:56;92309.66;;;9.05;95.71
21742;BME280;11033;47.490;11.116;2023-04-24T02:07:21;92308.84;;;8.98;96.70
21742;BME280;11033;47.490;11.116;2023-04-24T02:09:47;92314.09;;;8.91;96.82
21742;BME280;11033;47.490;11.116;2023-04-24T02:12:12;92320.97;;;8.85;98.30
21742;BME280;11033;47.490;11.116;2023-04-24T02:14:37;92308.44;;;8.87;98.54
21742;BME280;11033;47.490;11.116;2023-04-24T02:17:03;92305.81;;;8.87;97.86
21742;BME280;11033;47.490;11.116;2023-04-24T02:19:28;92299.16;;;8.92;97.73
21742;BME280;11033;47.490;11.116;2023-04-24T02:21:54;92307.22;;;8.83;98.06
21742;BME280;11033;47.490;11.116;2023-04-24T02:24:19;92307.03;;;8.92;96.86
21742;BME280;11033;47.490;11.116;2023-04-24T02:26:44;92299.16;;;8.92;96.22
21742;BME280;11033;47.490;11.116;2023-04-24T02:29:09;92303.16;;;8.74;96.58
21742;BME280;11033;47.490;11.116;2023-04-24T02:31:35;92305.81;;;8.87;96.98
21742;BME280;11033;47.490;11.116;2023-04-24T02:34:00;92306.00;;;8.86;96.50
21742;BME280;11033;47.490;11.116;2023-04-24T02:36:26;92310.44;;;8.79;96.91
21742;BME280;11033;47.490;11.116;2023-04-24T02:38:51;92316.28;;;8.74;97.18
21742;BME280;11033;47.490;11.116;2023-04-24T02:41:16;92309.63;;;8.78;96.16
21742;BME280;11033;47.490;11.116;2023-04-24T02:43:42;92314.09;;;9.04;93.93
21742;BME280;11033;47.490;11.116;2023-04-24T02:46:07;92316.53;;;9.06;93.85
21742;BME280;11033;47.490;11.116;2023-04-24T02:48:32;92304.84;;;9.15;92.18
21742;BME280;11033;47.490;11.116;2023-04-24T02:50:58;92306.03;;;9.06;93.52
21742;BME280;11033;47.490;11.116;2023-04-24T02:53:23;92308.44;;;9.01;92.48
21742;BME280;11033;47.490;11.116;2023-04-24T02:55:48;92305.00;;;8.94;91.30
21742;BME280;11033;47.490;11.116;2023-04-24T02:58:14;92307.22;;;8.83;91.24
21742;BME280;11033;47.490;11.116;2023-04-24T03:00:40;92308.84;;;8.84;90.29
21742;BME280;11033;47.490;11.116;2023-04-24T03:03:05;92302.56;;;8.85;89.36
21742;BME280;11033;47.490;11.116;2023-04-24T03:05:30;92310.03;;;8.75;90.38
21742;BME280;11033;47.490;11.116;2023-04-24T03:07:56;92312.69;;;8.88;89.13
21742;BME280;11033;47.490;11.116;2023-04-24T03:10:21;92305.81;;;8.87;90.21
21742;BME280;11033;47.490;11.116;2023-04-24T03:12:50;92308.66;;;8.93;88.81
21742;BME280;11033;47.490;11.116;2023-04-24T03:15:16;92314.72;;;8.93;90.17
21742;BME280;11033;47.490;11.116;2023-04-24T03:17:41;92313.69;;;8.87;89.21
21742;BME280;11033;47.490;11.116;2023-04-24T03:20:07;92312.06;;;8.86;88.01
21742;BME280;11033;47.490;11.116;2023-04-24T03:22:33;92305.59;;;8.82;89.29
21742;BME280;11033;47.490;11.116;2023-04-24T03:24:59;92308.03;;;8.90;89.63
21742;BME280;11033;47.490;11.116;2023-04-24T03:27:24;92296.13;;;8.81;90.54
21742;BME280;11033;47.490;11.116;2023-04-24T03:29:49;92298.72;;;8.81;91.75
21742;BME280;11033;47.490;11.116;2023-04-24T03:32:21;92294.69;;;8.85;91.47
21742;BME280;11033;47.490;11.116;2023-04-24T03:34:47;92300.56;;;8.87;91.92
21742;BME280;11033;47.490;11.116;2023-04-24T03:37:12;92308.84;;;8.84;91.01
21742;BME280;11033;47.490;11.116;2023-04-24T03:39:37;92299.09;;;8.58;93.52
21742;BME280;11033;47.490;11.116;2023-04-24T03:42:03;92305.97;;;8.53;93.86
21742;BME280;11033;47.490;11.116;2023-04-24T03:44:28;92303.56;;;8.71;93.03
21742;BME280;11033;47.490;11.116;2023-04-24T03:46:53;92308.00;;;8.71;93.60
21742;BME280;11033;47.490;11.116;2023-04-24T03:49:19;92305.19;;;8.66;93.67
21742;BME280;11033;47.490;11.116;2023-04-24T03:51:44;92309.63;;;8.65;93.74
21742;BME280;11033;47.490;11.116;2023-04-24T03:54:10;92308.19;;;8.56;95.81
21742;BME280;11033;47.490;11.116;2023-04-24T03:56:35;92312.47;;;8.77;94.33
21742;BME280;11033;47.490;11.116;2023-04-24T03:59:00;92317.28;;;8.67;93.43
21742;BME280;11033;47.490;11.116;2023-04-24T04:01:26;92315.47;;;8.67;94.52
21742;BME280;11033;47.490;11.116;2023-04-24T04:03:53;92320.34;;;8.70;94.51
21742;BME280;11033;47.490;11.116;2023-04-24T04:06:18;92321.75;;;8.66;94.28
21742;BME280;11033;47.490;11.116;2023-04-24T04:08:44;92324.19;;;8.74;95.00
21742;BME280;11033;47.490;11.116;2023-04-24T04:11:09;92328.75;;;8.46;95.55
21742;BME280;11033;47.490;11.116;2023-04-24T04:13:35;92331.81;;;8.56;94.88
21742;BME280;11033;47.490;11.116;2023-04-24T04:16:00;92325.88;;;8.41;94.23
21742;BME280;11033;47.490;11.116;2023-04-24T04:18:25;92328.50;;;8.41;94.27
21742;BME280;11033;47.490;11.116;2023-04-24T04:20:50;92329.41;;;8.61;93.04
21742;BME280;11033;47.490;11.116;2023-04-24T04:23:16;92328.97;;;8.51;92.26
21742;BME280;11033;47.490;11.116;2023-04-24T04:25:41;92332.63;;;8.56;92.30
21742;BME280;11033;47.490;11.116;2023-04-24T04:28:06;92340.72;;;8.68;91.57
21742;BME280;11033;47.490;11.116;2023-04-24T04:30:31;92339.75;;;8.82;91.70
21742;BME280;11033;47.490;11.116;2023-04-24T04:32:57;92346.00;;;8.81;91.68
21742;BME280;11033;47.490;11.116;2023-04-24T04:35:23;92346.81;;;8.88;91.96
21742;BME280;11033;47.490;11.116;2023-04-24T04:37:48;92343.34;;;8.68;93.10
21742;BME280;11033;47.490;11.116;2023-04-24T04:40:13;92346.72;;;8.49;95.53
21742;BME280;11033;47.490;11.116;2023-04-24T04:42:38;92345.97;;;8.62;94.90
21742;BME280;11033;47.490;11.116;2023-04-24T04:45:06;92346.00;;;8.75;93.59
21742;BME280;11033;47.490;11.116;2023-04-24T04:47:34;92345.59;;;8.84;92.12
21742;BME280;11033;47.490;11.116;2023-04-24T04:50:00;92353.63;;;8.63;94.83
21742;BME280;11033;47.490;11.116;2023-04-24T04:52:25;92348.97;;;8.58;94.05
21742;BME280;11033;47.490;11.116;2023-04-24T04:54:50;92351.81;;;8.57;95.30
21742;BME280;11033;47.490;11.116;2023-04-24T04:57:16;92353.63;;;8.56;97.04
21742;BME280;11033;47.490;11.116;2023-04-24T04:59:41;92351.63;;;8.65;95.33
21742;BME280;11033;47.490;11.116;2023-04-24T05:02:07;92346.56;;;8.64;96.09
21742;BME280;11033;47.490;11.116;2023-04-24T05:04:32;92359.53;;;8.78;94.89
21742;BME280;11033;47.490;11.116;2023-04-24T05:06:57;92358.16;;;8.96;93.33
21742;BME280;11033;47.490;11.116;2023-04-24T05:09:22;92360.72;;;8.69;93.87
21742;BME280;11033;47.490;11.116;2023-04-24T05:11:48;92365.19;;;8.75;93.72
21742;BME280;11033;47.490;11.116;2023-04-24T05:14:13;92365.81;;;8.90;92.97
21742;BME280;11033;47.490;11.116;2023-04-24T05:16:39;92363.00;;;8.92;91.51
21742;BME280;11033;47.490;11.116;2023-04-24T05:19:05;92374.72;;;8.96;90.77
21742;BME280;11033;47.490;11.116;2023-04-24T05:21:30;92373.66;;;8.77;92.10
21742;BME280;11033;47.490;11.116;2023-04-24T05:23:56;92380.34;;;8.86;90.96
21742;BME280;11033;47.490;11.116;2023-04-24T05:26:22;92382.28;;;8.58;93.01
21742;BME280;11033;47.490;11.116;2023-04-24T05:28:48;92379.91;;;8.76;92.87
21742;BME280;11033;47.490;11.116;2023-04-24T05:31:13;92391.22;;;8.70;93.40
21742;BME280;11033;47.490;11.116;2023-04-24T05:33:38;92390.78;;;8.60;94.56
21742;BME280;11033;47.490;11.116;2023-04-24T05:36:04;92389.16;;;8.59;94.46
21742;BME280;11033;47.490;11.116;2023-04-24T05:38:30;92379.75;;;8.91;93.46
21742;BME280;11033;47.490;11.116;2023-04-24T05:40:55;92380.16;;;8.95;93.68
21742;BME280;11033;47.490;11.116;2023-04-24T05:43:21;92386.81;;;8.90;93.78
21742;BME280;11033;47.490;11.116;2023-04-24T05:45:46;92382.59;;;9.03;92.56
21742;BME280;11033;47.490;11.116;2023-04-24T05:48:11;92370.28;;;9.10;92.88
21742;BME280;11033;47.490;11.116;2023-04-24T05:50:37;92376.09;;;8.85;93.97
21742;BME280;11033;47.490;11.116;2023-04-24T05:53:02;92377.06;;;8.71;94.58
21742;BME280;11033;47.490;11.116;2023-04-24T05:55:27;92370.63;;;8.74;93.80
21742;BME280;11033;47.490;11.116;2023-04-24T05:57:53;92382.94;;;8.67;95.33
21742;BME280;11033;47.490;11.116;2023-04-24T06:00:19;92375.06;;;8.73;94.69
21742;BME280;11033;47.490;11.116;2023-04-24T06:02:45;92378.09;;;8.70;94.29
21742;BME280;11033;47.490;11.116;2023-04-24T06:05:11;92366.97;;;8.68;94.03
21742;BME280;11033;47.490;11.116;2023-04-24T06:07:36;92373.81;;;8.63;95.25
21742;BME280;11033;47.490;11.116;2023-04-24T06:10:02;92371.66;;;8.86;93.21
21742;BME280;11033;47.490;11.116;2023-04-24T06:12:27;92368.66;;;9.02;92.56
21742;BME280;11033;47.490;11.116;2023-04-24T06:14:53;92375.50;;;8.83;94.08
21742;BME280;11033;47.490;11.116;2023-04-24T06:17:19;92379.75;;;8.91;93.92
21742;BME280;11033;47.490;11.116;2023-04-24T06:19:44;92381.19;;;9.07;92.94
21742;BME280;11033;47.490;11.116;2023-04-24T06:22:09;92388.66;;;8.97;93.77
21742;BME280;11033;47.490;11.116;2023-04-24T06:24:35;92389.72;;;9.15;94.26
21742;BME280;11033;47.490;11.116;2023-04-24T06:27:01;92387.06;;;9.09;92.85
21742;BME280;11033;47.490;11.116;2023-04-24T06:29:27;92393.56;;;9.13;93.44
21742;BME280;11033;47.490;11.116;2023-04-24T06:31:52;92389.13;;;9.27;92.10
21742;BME280;11033;47.490;11.116;2023-04-24T06:34:18;92380.03;;;9.36;91.78
21742;BME280;11033;47.490;11.116;2023-04-24T06:36:43;92379.44;;;9.27;93.99
21742;BME280;11033;47.490;11.116;2023-04-24T06:39:08;92379.22;;;9.62;91.85
21742;BME280;11033;47.490;11.116;2023-04-24T06:41:34;92375.19;;;9.66;91.53
21742;BME280;11033;47.490;11.116;2023-04-24T06:43:59;92370.72;;;9.60;91.22
21742;BME280;11033;47.490;11.116;2023-04-24T06:46:25;92374.97;;;9.87;89.77
21742;BME280;11033;47.490;11.116;2023-04-24T06:48:53;92374.78;;;9.82;89.10
21742;BME280;11033;47.490;11.116;2023-04-24T06:51:23;92369.44;;;10.15;88.20
21742;BME280;11033;47.490;11.116;2023-04-24T06:53:49;92372.50;;;10.12;88.87
21742;BME280;11033;47.490;11.116;2023-04-24T06:56:15;92370.34;;;10.67;87.10
21742;BME280;11033;47.490;11.116;2023-04-24T06:58:40;92371.41;;;10.53;85.10
21742;BME280;11033;47.490;11.116;2023-04-24T07:01:05;92370.19;;;10.55;83.76
21742;BME280;11033;47.490;11.116;2023-04-24T07:03:31;92368.38;;;10.94;83.37
21742;BME280;11033;47.490;11.116;2023-04-24T07:05:56;92362.31;;;10.87;82.33
21742;BME280;11033;47.490;11.116;2023-04-24T07:08:23;92367.47;;;11.13;82.43
21742;BME280;11033;47.490;11.116;2023-04-24T07:10:49;92359.63;;;11.31;81.00
21742;BME280;11033;47.490;11.116;2023-04-24T07:13:15;92369.34;;;11.06;80.77
21742;BME280;11033;47.490;11.116;2023-04-24T07:15:41;92367.81;;;11.23;80.67
21742;BME280;11033;47.490;11.116;2023-04-24T07:18:06;92368.56;;;11.30;78.37
21742;BME280;11033;47.490;11.116;2023-04-24T07:20:31;92367.97;;;11.28;77.24
21742;BME280;11033;47.490;11.116;2023-04-24T07:22:58;92367.47;;;11.13;75.92
21742;BME280;11033;47.490;11.116;2023-04-24T07:25:23;92376.34;;;11.19;76.72
21742;BME280;11033;47.490;11.116;2023-04-24T07:27:48;92371.78;;;11.01;75.93
21742;BME280;11033;47.490;11.116;2023-04-24T07:30:14;92375.00;;;11.09;74.61
21742;BME280;11033;47.490;11.116;2023-04-24T07:32:39;92375.13;;;11.21;74.46
21742;BME280;11033;47.490;11.116;2023-04-24T07:35:05;92374.66;;;11.31;77.09
21742;BME280;11033;47.490;11.116;2023-04-24T07:37:30;92369.41;;;11.56;79.93
21742;BME280;11033;47.490;11.116;2023-04-24T07:39:56;92373.66;;;12.06;77.56
21742;BME280;11033;47.490;11.116;2023-04-24T07:42:21;92374.78;;;12.17;79.37
21742;BME280;11033;47.490;11.116;2023-04-24T07:44:47;92372.22;;;12.29;76.31
21742;BME280;11033;47.490;11.116;2023-04-24T07:47:13;92372.84;;;12.67;75.48
21742;BME280;11033;47.490;11.116;2023-04-24T07:49:41;92362.22;;;12.86;75.00
21742;BME280;11033;47.490;11.116;2023-04-24T07:52:06;92374.69;;;13.15;73.34
21742;BME280;11033;47.490;11.116;2023-04-24T07:54:32;92367.13;;;13.19;72.22
21742;BME280;11033;47.490;11.116;2023-04-24T07:56:57;92364.88;;;13.04;72.83
21742;BME280;11033;47.490;11.116;2023-04-24T07:59:22;92362.59;;;12.89;72.78
21742;BME280;11033;47.490;11.116;2023-04-24T08:01:47;92367.66;;;13.09;72.94
21742;BME280;11033;47.490;11.116;2023-04-24T08:04:13;92386.19;;;12.54;72.00
21742;BME280;11033;47.490;11.116;2023-04-24T08:06:38;92380.09;;;12.54;72.20
21742;BME280;11033;47.490;11.116;2023-04-24T08:09:04;92381.88;;;11.98;71.92
21742;BME280;11033;47.490;11.116;2023-04-24T08:11:29;92394.94;;;12.12;72.10
21742;BME280;11033;47.490;11.116;2023-04-24T08:13:54;92402.44;;;12.15;71.65
21742;BME280;11033;47.490;11.116;2023-04-24T08:16:19;92405.03;;;11.96;71.88
21742;BME280;11033;47.490;11.116;2023-04-24T08:18:45;92404.59;;;11.99;73.64
21742;BME280;11033;47.490;11.116;2023-04-24T08:21:10;92412.19;;;11.89;75.14
21742;BME280;11033;47.490;11.116;2023-04-24T08:23:37;92415.13;;;11.81;76.98
21742;BME280;11033;47.490;11.116;2023-04-24T08:26:03;92421.00;;;11.77;77.94
21742;BME280;11033;47.490;11.116;2023-04-24T08:28:28;92421.56;;;11.85;78.62
21742;BME280;11033;47.490;11.116;2023-04-24T08:30:53;92413.72;;;12.22;77.41
21742;BME280;11033;47.490;11.116;2023-04-24T08:33:21;92409.94;;;11.93;76.79
21742;BME280;11033;47.490;11.116;2023-04-24T08:35:46;92404.63;;;12.18;76.25
21742;BME280;11033;47.490;11.116;2023-04-24T08:38:12;92413.44;;;12.30;72.97
21742;BME280;11033;47.490;11.116;2023-04-24T08:40:37;92399.84;;;12.51;70.08
21742;BME280;11033;47.490;11.116;2023-04-24T08:43:03;92397.94;;;12.77;69.74
21742;BME280;11033;47.490;11.116;2023-04-24T08:45:29;92386.38;;;13.08;72.39
21742;BME280;11033;47.490;11.116;2023-04-24T08:47:54;92395.56;;;13.23;70.61
21742;BME280;11033;47.490;11.116;2023-04-24T08:50:21;92404.38;;;13.47;72.55
21742;BME280;11033;47.490;11.116;2023-04-24T08:52:50;92404.22;;;13.12;71.53
21742;BME280;11033;47.490;11.116;2023-04-24T08:55:16;92405.13;;;12.69;71.11
21742;BME280;11033;47.490;11.116;2023-04-24T08:57:44;92412.75;;;12.78;70.62
21742;BME280;11033;47.490;11.116;2023-04-24T09:00:10;92409.06;;;13.15;68.84
21742;BME280;11033;47.490;11.116;2023-04-24T09:02:36;92403.34;;;13.18;69.86
21742;BME280;11033;47.490;11.116;2023-04-24T09:05:02;92407.44;;;13.14;68.43
21742;BME280;11033;47.490;11.116;2023-04-24T09:07:30;92407.63;;;13.61;70.74
21742;BME280;11033;47.490;11.116;2023-04-24T09:09:57;92418.31;;;13.54;66.35
21742;BME280;11033;47.490;11.116;2023-04-24T09:12:24;92407.13;;;13.82;65.75
21742;BME280;11033;47.490;11.116;2023-04-24T09:14:49;92406.09;;;13.83;64.70
21742;BME280;11033;47.490;11.116;2023-04-24T09:17:15;92415.22;;;13.57;65.39
21742;BME280;11033;47.490;11.116;2023-04-24T09:19:40;92414.72;;;13.49;63.86
21742;BME280;11033;47.490;11.116;2023-04-24T09:22:09;92403.63;;;14.35;61.75
21742;BME280;11033;47.490;11.116;2023-04-24T09:24:36;92413.97;;;14.72;61.87
21742;BME280;11033;47.490;11.116;2023-04-24T09:27:01;92418.91;;;15.03;62.11
21742;BME280;11033;47.490;11.116;2023-04-24T09:29:28;92415.97;;;14.53;60.34
21742;BME280;11033;47.490;11.116;2023-04-24T09:31:53;92420.56;;;14.46;61.11
21742;BME280;11033;47.490;11.116;2023-04-24T09:34:21;92416.06;;;13.70;62.22
21742;BME280;11033;47.490;11.116;2023-04-24T09:36:48;92418.56;;;14.18;60.69
21742;BME280;11033;47.490;11.116;2023-04-24T09:39:15;92430.50;;;13.85;60.74
21742;BME280;11033;47.490;11.116;2023-04-24T09:41:53;92435.81;;;13.07;62.77
21742;BME280;11033;47.490;11.116;2023-04-24T09:44:21;92436.38;;;13.27;63.79
21742;BME280;11033;47.490;11.116;2023-04-24T09:49:22;92423.22;;;14.57;60.07
21742;BME280;11033;47.490;11.116;2023-04-24T09:51:47;92415.56;;;14.96;58.19
21742;BME280;11033;47.490;11.116;2023-04-24T09:54:17;92417.34;;;14.44;59.88
21742;BME280;11033;47.490;11.116;2023-04-24T09:56:47;92416.59;;;14.83;60.03
21742;BME280;11033;47.490;11.116;2023-04-24T09:59:16;92424.03;;;15.21;58.27
21742;BME280;11033;47.490;11.116;2023-04-24T10:01:42;92415.97;;;15.45;58.71
21742;BME280;11033;47.490;11.116;2023-04-24T10:04:24;92407.53;;;15.48;58.31
21742;BME280;11033;47.490;11.116;2023-04-24T10:06:50;92404.09;;;16.76;58.04
21742;BME280;11033;47.490;11.116;2023-04-24T10:09:17;92407.69;;;17.04;56.10
21742;BME280;11033;47.490;11.116;2023-04-24T10:11:46;92400.34;;;16.39;59.52
21742;BME280;11033;47.490;11.116;2023-04-24T10:14:20;92396.91;;;17.16;56.29
21742;BME280;11033;47.490;11.116;2023-04-24T10:16:49;92393.41;;;16.21;56.03
21742;BME280;11033;47.490;11.116;2023-04-24T10:19:16;92399.06;;;16.08;55.58
21742;BME280;11033;47.490;11.116;2023-04-24T10:21:44;92389.75;;;16.61;55.39
21742;BME280;11033;47.490;11.116;2023-04-24T10:24:18;92394.94;;;16.51;52.79
21742;BME280;11033;47.490;11.116;2023-04-24T10:26:46;92393.34;;;16.16;55.77
21742;BME280;11033;47.490;11.116;2023-04-24T10:29:14;92389.09;;;17.31;54.66
21742;BME280;11033;47.490;11.116;2023-04-24T10:31:41;92390.19;;;17.35;52.69
21742;BME280;11033;47.490;11.116;2023-04-24T10:34:08;92394.19;;;17.10;51.19
21742;BME280;11033;47.490;11.116;2023-04-24T10:36:35;92378.09;;;17.00;53.47
21742;BME280;11033;47.490;11.116;2023-04-24T10:39:03;92398.75;;;16.38;53.82
21742;BME280;11033;47.490;11.116;2023-04-24T10:41:31;92397.19;;;16.25;48.89
21742;BME280;11033;47.490;11.116;2023-04-24T10:46:35;92396.88;;;15.88;47.93
21742;BME280;11033;47.490;11.116;2023-04-24T10:49:04;92395.94;;;16.28;46.37
21742;BME280;11033;47.490;11.116;2023-04-24T10:51:46;92388.34;;;16.36;46.14
21742;BME280;11033;47.490;11.116;2023-04-24T10:54:28;92410.06;;;15.83;43.69
21742;BME280;11033;47.490;11.116;2023-04-24T10:59:46;92399.72;;;16.87;45.13
21742;BME280;11033;47.490;11.116;2023-04-24T11:02:15;92405.69;;;16.94;44.60
21742;BME280;11033;47.490;11.116;2023-04-24T11:04:41;92422.34;;;15.44;48.11
21742;BME280;11033;47.490;11.116;2023-04-24T11:07:09;92423.00;;;15.22;45.37
21742;BME280;11033;47.490;11.116;2023-04-24T11:09:35;92413.19;;;16.64;44.26
21742;BME280;11033;47.490;11.116;2023-04-24T11:12:06;92408.13;;;16.79;43.90
21742;BME280;11033;47.490;11.116;2023-04-24T11:17:36;92427.63;;;16.17;43.62
21742;BME280;11033;47.490;11.116;2023-04-24T11:20:07;92416.72;;;15.57;44.51
21742;BME280;11033;47.490;11.116;2023-04-24T11:22:35;92433.97;;;15.14;44.83
21742;BME280;11033;47.490;11.116;2023-04-24T11:25:02;92436.47;;;14.69;45.89
21742;BME280;11033;47.490;11.116;2023-04-24T11:27:30;92433.94;;;15.54;46.22
21742;BME280;11033;47.490;11.116;2023-04-24T11:35:06;92417.31;;;15.31;50.70
21742;BME280;11033;47.490;11.116;2023-04-24T11:40:05;92414.22;;;16.96;48.68
21742;BME280;11033;47.490;11.116;2023-04-24T11:42:35;92408.22;;;16.51;49.47
21742;BME280;11033;47.490;11.116;2023-04-24T11:45:01;92396.19;;;16.65;48.35
21742;BME280;11033;47.490;11.116;2023-04-24T11:47:28;92420.88;;;16.10;48.48
21742;BME280;11033;47.490;11.116;2023-04-24T11:49:54;92412.28;;;15.46;49.54
21742;BME280;11033;47.490;11.116;2023-04-24T11:52:19;92413.88;;;16.04;49.91
21742;BME280;11033;47.490;11.116;2023-04-24T11:54:48;92411.03;;;16.61;44.50
21742;BME280;11033;47.490;11.116;2023-04-24T11:57:15;92426.50;;;16.64;46.43
21742;BME280;11033;47.490;11.116;2023-04-24T11:59:40;92414.22;;;17.40;46.40
21742;BME280;11033;47.490;11.116;2023-04-24T12:02:05;92424.31;;;16.77;45.53
21742;BME280;11033;47.490;11.116;2023-04-24T12:04:39;92420.75;;;16.33;43.56
21742;BME280;11033;47.490;11.116;2023-04-24T12:07:05;92425.81;;;16.90;45.13
21742;BME280;11033;47.490;11.116;2023-04-24T12:09:55;92428.66;;;17.22;45.62
21742;BME280;11033;47.490;11.116;2023-04-24T12:12:20;92413.16;;;17.41;46.63
21742;BME280;11033;47.490;11.116;2023-04-24T12:14:56;92434.91;;;16.56;43.82
21742;BME280;11033;47.490;11.116;2023-04-24T12:17:27;92449.53;;;16.08;44.82
21742;BME280;11033;47.490;11.116;2023-04-24T12:19:57;92448.75;;;15.10;46.22
21742;BME280;11033;47.490;11.116;2023-04-24T12:22:23;92455.97;;;15.55;43.88
21742;BME280;11033;47.490;11.116;2023-04-24T12:24:59;92458.53;;;17.51;41.29
21742;BME280;11033;47.490;11.116;2023-04-24T12:27:26;92461.75;;;17.97;39.90
21742;BME280;11033;47.490;11.116;2023-04-24T12:29:53;92464.72;;;17.73;38.12
21742;BME280;11033;47.490;11.116;2023-04-24T12:32:18;92479.84;;;18.49;37.01
21742;BME280;11033;47.490;11.116;2023-04-24T12:34:44;92464.06;;;18.74;39.11
21742;BME280;11033;47.490;11.116;2023-04-24T12:37:10;92452.25;;;17.57;38.54
21742;BME280;11033;47.490;11.116;2023-04-24T12:39:36;92468.16;;;17.30;38.42
21742;BME280;11033;47.490;11.116;2023-04-24T12:42:01;92462.63;;;16.76;39.18
21742;BME280;11033;47.490;11.116;2023-04-24T12:44:33;92465.44;;;16.36;39.73
21742;BME280;11033;47.490;11.116;2023-04-24T12:47:02;92466.31;;;17.74;38.62
21742;BME280;11033;47.490;11.116;2023-04-24T12:49:29;92460.28;;;18.11;36.93
21742;BME280;11033;47.490;11.116;2023-04-24T12:51:55;92471.88;;;17.29;38.70
21742;BME280;11033;47.490;11.116;2023-04-24T12:54:20;92466.16;;;16.82;38.08
21742;BME280;11033;47.490;11.116;2023-04-24T12:56:46;92467.91;;;17.32;38.87
21742;BME280;11033;47.490;11.116;2023-04-24T12:59:11;92468.09;;;16.53;37.34
21742;BME280;11033;47.490;11.116;2023-04-24T13:01:36;92479.53;;;16.87;37.93
21742;BME280;11033;47.490;11.116;2023-04-24T13:04:02;92495.34;;;18.52;36.30
21742;BME280;11033;47.490;11.116;2023-04-24T13:06:27;92561.75;;;22.95;30.11
21742;BME280;11033;47.490;11.116;2023-04-24T13:08:52;92488.84;;;18.43;35.71